createdAt,value
2023-01-13T00:00:32.733Z,97.95
2023-01-13T00:01:32.656Z,97.85
2023-01-13T00:02:32.672Z,97.85
2023-01-13T00:03:32.689Z,97.74
2023-01-13T00:04:32.682Z,97.95
2023-01-13T00:05:32.641Z,97.95
2023-01-13T00:06:32.618Z,97.74
2023-01-13T00:07:32.595Z,97.85
2023-01-13T00:08:32.710Z,97.95
2023-01-13T00:09:32.582Z,97.85
2023-01-13T00:10:32.569Z,98.05
2023-01-13T00:11:32.574Z,97.64
2023-01-13T00:12:32.601Z,97.64
2023-01-13T00:13:32.587Z,97.44
2023-01-13T00:14:32.528Z,97.23
2023-01-13T00:15:32.551Z,96.88
2023-01-13T00:16:32.505Z,96.78
2023-01-13T00:17:32.503Z,96.78
2023-01-13T00:18:32.512Z,96.78
2023-01-13T00:19:32.514Z,96.67
2023-01-13T00:20:32.454Z,96.98
2023-01-13T00:21:32.454Z,97.19
2023-01-13T00:22:32.439Z,96.78
2023-01-13T00:23:32.481Z,96.67
2023-01-13T00:24:32.435Z,96.67
2023-01-13T00:25:32.417Z,96.67
2023-01-13T00:26:32.397Z,96.57
2023-01-13T00:27:32.404Z,96.67
2023-01-13T00:28:32.378Z,96.37
2023-01-13T00:29:32.399Z,96.47
2023-01-13T00:30:32.355Z,96.47
2023-01-13T00:31:32.454Z,96.47
2023-01-13T00:32:32.345Z,96.26
2023-01-13T00:33:32.348Z,96.26
2023-01-13T00:34:32.323Z,96.37
2023-01-13T00:35:32.310Z,96.37
2023-01-13T00:36:32.321Z,96.37
2023-01-13T00:37:32.343Z,96.47
2023-01-13T00:38:32.313Z,96.47
2023-01-13T00:39:32.271Z,96.67
2023-01-13T00:40:32.274Z,96.57
2023-01-13T00:41:32.247Z,96.26
2023-01-13T00:42:32.225Z,96.37
2023-01-13T00:43:32.275Z,96.16
2023-01-13T00:44:32.221Z,96.26
2023-01-13T00:45:32.210Z,96.06
2023-01-13T00:46:32.350Z,95.95
2023-01-13T00:47:32.199Z,96.06
2023-01-13T00:48:32.199Z,95.95
2023-01-13T00:49:33.134Z,95.95
2023-01-13T00:50:32.213Z,95.86
2023-01-13T00:51:32.133Z,95.75
2023-01-13T00:52:32.189Z,95.54
2023-01-13T00:53:32.155Z,95.34
2023-01-13T00:54:32.147Z,95.44
2023-01-13T00:55:32.099Z,95.44
2023-01-13T00:56:40.224Z,95.34
2023-01-13T00:57:32.079Z,95.34
2023-01-13T00:58:32.091Z,95.34
2023-01-13T00:59:32.089Z,95.44
2023-01-13T01:00:32.101Z,95.34
2023-01-13T01:01:32.213Z,95.34
2023-01-13T01:02:32.069Z,95.54
2023-01-13T01:03:32.030Z,95.54
2023-01-13T01:04:32.026Z,95.54
2023-01-13T01:05:31.996Z,95.34
2023-01-13T01:06:31.990Z,95.44
2023-01-13T01:07:31.973Z,95.44
2023-01-13T01:08:31.974Z,95.65
2023-01-13T01:09:31.966Z,95.54
2023-01-13T01:10:31.945Z,95.65
2023-01-13T01:11:31.939Z,95.75
2023-01-13T01:12:31.933Z,95.54
2023-01-13T01:13:32.019Z,95.44
2023-01-13T01:14:31.952Z,95.54
2023-01-13T01:15:31.885Z,95.44
2023-01-13T01:16:32.018Z,95.24
2023-01-13T01:17:31.866Z,95.03
2023-01-13T01:18:31.856Z,95.03
2023-01-13T01:19:32.153Z,95.24
2023-01-13T01:20:31.839Z,95.14
2023-01-13T01:21:31.873Z,95.14
2023-01-13T01:22:31.824Z,95.14
2023-01-13T01:23:31.839Z,95.34
2023-01-13T01:24:31.821Z,95.24
2023-01-13T01:25:31.786Z,95.14
2023-01-13T01:26:31.788Z,94.93
2023-01-13T01:27:31.782Z,94.73
2023-01-13T01:28:31.779Z,94.62
2023-01-13T01:29:31.811Z,94.52
2023-01-13T01:30:31.731Z,94.42
2023-01-13T01:31:31.871Z,94.32
2023-01-13T01:32:31.726Z,94.11
2023-01-13T01:33:31.701Z,94.07
2023-01-13T01:34:31.737Z,94.07
2023-01-13T01:35:31.678Z,94.01
2023-01-13T01:36:31.704Z,93.96
2023-01-13T01:37:31.677Z,94.17
2023-01-13T01:38:31.651Z,94.11
2023-01-13T01:39:31.744Z,94.01
2023-01-13T01:40:31.650Z,93.96
2023-01-13T01:41:31.645Z,93.90
2023-01-13T01:42:31.622Z,93.76
2023-01-13T01:43:31.630Z,94.01
2023-01-13T01:44:31.649Z,93.66
2023-01-13T01:45:31.719Z,93.35
2023-01-13T01:46:31.638Z,93.35
2023-01-13T01:47:31.562Z,93.15
2023-01-13T01:48:31.560Z,93.04
2023-01-13T01:49:31.560Z,93.15
2023-01-13T01:50:31.534Z,92.74
2023-01-13T01:51:31.529Z,92.83
2023-01-13T01:52:31.522Z,92.74
2023-01-13T01:53:31.494Z,92.83
2023-01-13T01:54:31.553Z,92.63
2023-01-13T01:55:31.497Z,92.74
2023-01-13T01:56:31.462Z,92.43
2023-01-13T01:57:31.454Z,92.63
2023-01-13T01:58:31.467Z,92.63
2023-01-13T01:59:31.474Z,92.32
2023-01-13T02:00:31.444Z,92.43
2023-01-13T02:01:31.500Z,92.22
2023-01-13T02:02:31.473Z,92.22
2023-01-13T02:03:31.428Z,92.32
2023-01-13T02:04:31.393Z,92.22
2023-01-13T02:05:31.371Z,92.02
2023-01-13T02:06:31.419Z,91.91
2023-01-13T02:07:31.389Z,91.82
2023-01-13T02:08:31.341Z,91.91
2023-01-13T02:09:31.382Z,92.12
2023-01-13T02:10:31.324Z,91.71
2023-01-13T02:11:31.315Z,91.82
2023-01-13T02:12:31.303Z,91.61
2023-01-13T02:13:31.282Z,91.50
2023-01-13T02:14:31.305Z,91.71
2023-01-13T02:15:31.333Z,91.40
2023-01-13T02:16:31.345Z,91.40
2023-01-13T02:17:31.255Z,91.61
2023-01-13T02:18:31.258Z,91.61
2023-01-13T02:19:31.245Z,91.82
2023-01-13T02:20:31.227Z,91.61
2023-01-13T02:21:31.215Z,91.61
2023-01-13T02:22:31.195Z,91.30
2023-01-13T02:23:31.213Z,90.99
2023-01-13T02:24:31.196Z,90.95
2023-01-13T02:25:31.165Z,91.05
2023-01-13T02:26:31.149Z,91.05
2023-01-13T02:27:31.165Z,90.84
2023-01-13T02:28:31.147Z,91.05
2023-01-13T02:29:31.143Z,90.84
2023-01-13T02:30:31.119Z,90.84
2023-01-13T02:31:31.116Z,90.75
2023-01-13T02:32:31.096Z,90.75
2023-01-13T02:33:31.082Z,90.89
2023-01-13T02:34:31.081Z,90.99
2023-01-13T02:35:31.113Z,90.99
2023-01-13T02:36:31.131Z,90.89
2023-01-13T02:37:31.045Z,91.09
2023-01-13T02:38:31.050Z,91.30
2023-01-13T02:39:31.015Z,91.40
2023-01-13T02:40:31.053Z,91.40
2023-01-13T02:41:31.001Z,91.30
2023-01-13T02:42:31.053Z,91.30
2023-01-13T02:43:31.012Z,91.09
2023-01-13T02:44:31.003Z,90.99
2023-01-13T02:45:31.014Z,91.09
2023-01-13T02:46:30.984Z,91.09
2023-01-13T02:47:30.992Z,91.30
2023-01-13T02:48:30.979Z,91.50
2023-01-13T02:49:30.955Z,91.50
2023-01-13T02:50:30.935Z,91.30
2023-01-13T02:51:30.899Z,91.30
2023-01-13T02:52:30.912Z,91.20
2023-01-13T02:53:30.891Z,91.09
2023-01-13T02:54:30.871Z,90.99
2023-01-13T02:55:30.982Z,90.99
2023-01-13T02:56:30.903Z,90.69
2023-01-13T02:57:30.834Z,90.79
2023-01-13T02:58:30.826Z,90.69
2023-01-13T02:59:30.783Z,91.09
2023-01-13T03:00:30.847Z,91.09
2023-01-13T03:01:30.892Z,91.09
2023-01-13T03:02:30.752Z,90.99
2023-01-13T03:03:30.730Z,90.99
2023-01-13T03:04:30.694Z,91.09
2023-01-13T03:05:30.720Z,90.99
2023-01-13T03:06:30.695Z,91.09
2023-01-13T03:07:30.688Z,90.89
2023-01-13T03:08:30.689Z,90.99
2023-01-13T03:09:30.717Z,90.89
2023-01-13T03:10:30.683Z,90.89
2023-01-13T03:11:30.616Z,90.89
2023-01-13T03:12:30.641Z,90.89
2023-01-13T03:13:30.619Z,90.89
2023-01-13T03:14:30.598Z,90.89
2023-01-13T03:15:30.661Z,90.99
2023-01-13T03:16:30.622Z,91.09
2023-01-13T03:17:30.575Z,90.89
2023-01-13T03:18:30.587Z,91.09
2023-01-13T03:19:30.563Z,90.99
2023-01-13T03:20:30.545Z,91.09
2023-01-13T03:21:30.517Z,91.09
2023-01-13T03:22:30.504Z,91.09
2023-01-13T03:23:30.497Z,90.99
2023-01-13T03:24:30.527Z,90.89
2023-01-13T03:25:30.491Z,90.89
2023-01-13T03:26:30.477Z,90.69
2023-01-13T03:27:30.482Z,90.58
2023-01-13T03:28:30.447Z,90.69
2023-01-13T03:29:30.430Z,90.48
2023-01-13T03:30:30.514Z,90.28
2023-01-13T03:31:30.435Z,90.48
2023-01-13T03:32:30.449Z,90.37
2023-01-13T03:33:30.384Z,90.58
2023-01-13T03:34:31.245Z,90.17
2023-01-13T03:35:30.396Z,90.17
2023-01-13T03:36:30.367Z,90.37
2023-01-13T03:37:30.346Z,90.28
2023-01-13T03:38:30.341Z,90.37
2023-01-13T03:39:30.399Z,90.28
2023-01-13T03:40:30.411Z,90.28
2023-01-13T03:41:30.305Z,90.37
2023-01-13T03:42:30.315Z,90.28
2023-01-13T03:43:30.290Z,90.48
2023-01-13T03:44:32.563Z,90.28
2023-01-13T03:45:30.288Z,90.17
2023-01-13T03:46:30.268Z,90.07
2023-01-13T03:47:30.275Z,89.97
2023-01-13T03:48:30.291Z,89.97
2023-01-13T03:49:30.227Z,89.87
2023-01-13T03:50:30.216Z,89.97
2023-01-13T03:51:30.265Z,89.97
2023-01-13T03:52:30.208Z,89.97
2023-01-13T03:53:30.216Z,89.87
2023-01-13T03:54:30.202Z,90.07
2023-01-13T03:55:30.158Z,90.28
2023-01-13T03:56:30.156Z,90.28
2023-01-13T03:57:30.216Z,90.28
2023-01-13T03:58:30.159Z,90.17
2023-01-13T03:59:30.144Z,90.17
2023-01-13T04:00:30.132Z,89.97
2023-01-13T04:01:30.264Z,90.07
2023-01-13T04:02:30.096Z,89.87
2023-01-13T04:03:30.240Z,89.97
2023-01-13T04:04:30.087Z,89.97
2023-01-13T04:05:30.078Z,89.87
2023-01-13T04:06:30.061Z,90.07
2023-01-13T04:07:30.071Z,89.97
2023-01-13T04:08:30.031Z,90.07
2023-01-13T04:09:30.020Z,90.07
2023-01-13T04:10:30.096Z,90.07
2023-01-13T04:11:30.013Z,89.87
2023-01-13T04:12:30.026Z,89.87
2023-01-13T04:13:29.979Z,89.76
2023-01-13T04:14:29.971Z,89.87
2023-01-13T04:15:30.055Z,89.87
2023-01-13T04:16:29.959Z,90.07
2023-01-13T04:17:29.956Z,90.07
2023-01-13T04:18:29.940Z,89.97
2023-01-13T04:19:29.921Z,90.07
2023-01-13T04:20:29.973Z,89.97
2023-01-13T04:21:29.902Z,89.87
2023-01-13T04:22:29.892Z,89.87
2023-01-13T04:23:29.893Z,90.07
2023-01-13T04:24:29.884Z,90.17
2023-01-13T04:25:29.878Z,90.17
2023-01-13T04:26:29.863Z,90.07
2023-01-13T04:27:29.835Z,90.22
2023-01-13T04:28:29.843Z,90.28
2023-01-13T04:29:29.817Z,90.32
2023-01-13T04:30:29.848Z,90.17
2023-01-13T04:31:29.811Z,89.97
2023-01-13T04:32:29.784Z,90.07
2023-01-13T04:33:29.801Z,90.17
2023-01-13T04:34:29.771Z,90.07
2023-01-13T04:35:29.767Z,90.22
2023-01-13T04:36:29.758Z,90.07
2023-01-13T04:37:29.735Z,90.17
2023-01-13T04:38:29.774Z,89.97
2023-01-13T04:39:29.715Z,90.17
2023-01-13T04:40:29.707Z,90.32
2023-01-13T04:41:29.710Z,90.32
2023-01-13T04:42:29.708Z,90.32
2023-01-13T04:43:29.798Z,90.42
2023-01-13T04:44:29.665Z,90.32
2023-01-13T04:45:29.665Z,90.42
2023-01-13T04:46:29.765Z,90.52
2023-01-13T04:47:29.644Z,90.42
2023-01-13T04:48:29.651Z,90.42
2023-01-13T04:49:29.633Z,90.32
2023-01-13T04:50:29.669Z,90.42
2023-01-13T04:51:29.590Z,90.42
2023-01-13T04:52:29.666Z,90.42
2023-01-13T04:53:29.591Z,90.52
2023-01-13T04:54:29.624Z,90.42
2023-01-13T04:55:29.571Z,90.42
2023-01-13T04:56:29.576Z,90.42
2023-01-13T04:57:29.555Z,90.22
2023-01-13T04:58:29.517Z,90.32
2023-01-13T04:59:29.547Z,90.32
2023-01-13T05:00:29.555Z,90.22
2023-01-13T05:01:29.578Z,90.22
2023-01-13T05:02:29.483Z,90.22
2023-01-13T05:03:29.463Z,90.32
2023-01-13T05:04:29.515Z,90.42
2023-01-13T05:05:29.502Z,90.52
2023-01-13T05:06:29.445Z,90.32
2023-01-13T05:07:29.447Z,90.22
2023-01-13T05:08:29.420Z,90.22
2023-01-13T05:09:29.394Z,90.22
2023-01-13T05:10:29.442Z,90.42
2023-01-13T05:11:29.404Z,90.42
2023-01-13T05:12:29.386Z,90.42
2023-01-13T05:13:29.380Z,90.42
2023-01-13T05:14:29.349Z,90.32
2023-01-13T05:15:29.366Z,90.32
2023-01-13T05:16:29.450Z,90.52
2023-01-13T05:17:29.324Z,90.52
2023-01-13T05:18:29.330Z,90.62
2023-01-13T05:19:29.293Z,90.42
2023-01-13T05:20:29.339Z,90.42
2023-01-13T05:21:29.278Z,90.52
2023-01-13T05:22:29.315Z,90.62
2023-01-13T05:23:29.251Z,90.62
2023-01-13T05:24:29.254Z,90.52
2023-01-13T05:25:29.343Z,90.42
2023-01-13T05:26:29.227Z,90.62
2023-01-13T05:27:29.241Z,91.14
2023-01-13T05:28:29.200Z,92.06
2023-01-13T05:29:29.224Z,92.57
2023-01-13T05:30:29.201Z,92.98
2023-01-13T05:31:29.252Z,93.49
2023-01-13T05:32:29.165Z,93.60
2023-01-13T05:33:29.194Z,94.15
2023-01-13T05:34:29.161Z,94.36
2023-01-13T05:35:29.181Z,94.46
2023-01-13T05:36:29.137Z,94.67
2023-01-13T05:37:29.110Z,94.87
2023-01-13T05:38:29.114Z,94.87
2023-01-13T05:39:29.087Z,94.77
2023-01-13T05:40:29.104Z,94.46
2023-01-13T05:41:29.068Z,94.56
2023-01-13T05:42:29.093Z,94.36
2023-01-13T05:43:29.049Z,94.36
2023-01-13T05:44:29.046Z,94.15
2023-01-13T05:45:29.112Z,94.05
2023-01-13T05:46:29.076Z,94.05
2023-01-13T05:47:29.001Z,93.85
2023-01-13T05:48:29.034Z,93.85
2023-01-13T05:49:29.022Z,93.85
2023-01-13T05:50:29.038Z,93.74
2023-01-13T05:51:28.956Z,93.74
2023-01-13T05:52:28.977Z,93.74
2023-01-13T05:53:28.945Z,93.85
2023-01-13T05:54:28.949Z,93.74
2023-01-13T05:55:28.935Z,93.85
2023-01-13T05:56:28.931Z,93.74
2023-01-13T05:57:28.893Z,93.54
2023-01-13T05:58:28.906Z,93.74
2023-01-13T05:59:28.902Z,93.64
2023-01-13T06:00:28.896Z,93.44
2023-01-13T06:01:28.906Z,93.33
2023-01-13T06:02:28.872Z,93.23
2023-01-13T06:03:28.863Z,92.47
2023-01-13T06:04:28.911Z,92.27
2023-01-13T06:05:28.887Z,92.27
2023-01-13T06:06:28.819Z,91.30
2023-01-13T06:07:28.792Z,91.09
2023-01-13T06:08:28.795Z,91.20
2023-01-13T06:09:28.804Z,90.69
2023-01-13T06:10:28.771Z,90.37
2023-01-13T06:11:28.813Z,90.48
2023-01-13T06:12:28.785Z,90.58
2023-01-13T06:13:28.770Z,90.58
2023-01-13T06:14:28.804Z,90.07
2023-01-13T06:15:28.715Z,90.28
2023-01-13T06:16:28.824Z,90.28
2023-01-13T06:17:28.704Z,90.17
2023-01-13T06:18:28.713Z,90.48
2023-01-13T06:19:28.679Z,90.37
2023-01-13T06:20:28.668Z,90.37
2023-01-13T06:21:28.665Z,90.48
2023-01-13T06:22:28.660Z,90.37
2023-01-13T06:23:28.654Z,90.17
2023-01-13T06:24:28.675Z,90.17
2023-01-13T06:25:28.636Z,90.17
2023-01-13T06:26:28.603Z,90.48
2023-01-13T06:27:28.616Z,90.48
2023-01-13T06:28:28.608Z,90.69
2023-01-13T06:29:28.594Z,90.58
2023-01-13T06:30:28.564Z,90.37
2023-01-13T06:31:28.705Z,90.48
2023-01-13T06:32:28.579Z,90.58
2023-01-13T06:33:28.543Z,90.69
2023-01-13T06:34:28.562Z,90.48
2023-01-13T06:35:28.523Z,90.28
2023-01-13T06:36:28.476Z,90.17
2023-01-13T06:37:28.534Z,90.07
2023-01-13T06:38:28.452Z,90.17
2023-01-13T06:39:28.430Z,90.37
2023-01-13T06:40:28.398Z,90.17
2023-01-13T06:41:28.436Z,89.66
2023-01-13T06:42:28.378Z,89.56
2023-01-13T06:43:28.413Z,89.21
2023-01-13T06:44:28.383Z,89.21
2023-01-13T06:45:28.384Z,89.42
2023-01-13T06:46:28.389Z,89.31
2023-01-13T06:47:28.366Z,89.21
2023-01-13T06:48:28.403Z,89.21
2023-01-13T06:49:28.315Z,89.21
2023-01-13T06:50:28.318Z,89.42
2023-01-13T06:51:28.342Z,89.42
2023-01-13T06:52:28.285Z,89.42
2023-01-13T06:53:28.373Z,89.62
2023-01-13T06:54:28.304Z,89.83
2023-01-13T06:55:28.271Z,90.03
2023-01-13T06:56:28.266Z,90.13
2023-01-13T06:57:28.239Z,90.58
2023-01-13T06:58:28.232Z,90.79
2023-01-13T06:59:28.213Z,90.79
2023-01-13T07:00:28.196Z,91.20
2023-01-13T07:01:28.374Z,91.40
2023-01-13T07:02:28.285Z,91.40
2023-01-13T07:03:28.186Z,91.40
2023-01-13T07:04:28.158Z,91.61
2023-01-13T07:05:28.146Z,92.02
2023-01-13T07:06:28.141Z,91.82
2023-01-13T07:07:28.206Z,91.91
2023-01-13T07:08:28.135Z,92.02
2023-01-13T07:09:28.126Z,91.91
2023-01-13T07:10:28.112Z,91.91
2023-01-13T07:11:28.107Z,91.91
2023-01-13T07:12:28.115Z,91.71
2023-01-13T07:13:28.094Z,91.61
2023-01-13T07:14:28.059Z,91.40
2023-01-13T07:15:28.054Z,91.40
2023-01-13T07:16:28.183Z,90.99
2023-01-13T07:17:28.060Z,90.99
2023-01-13T07:18:28.019Z,91.20
2023-01-13T07:19:28.006Z,90.58
2023-01-13T07:20:28.005Z,90.37
2023-01-13T07:21:28.029Z,90.37
2023-01-13T07:22:27.966Z,89.97
2023-01-13T07:23:28.004Z,89.76
2023-01-13T07:24:27.955Z,88.80
2023-01-13T07:25:27.971Z,88.70
2023-01-13T07:26:27.951Z,88.49
2023-01-13T07:27:27.940Z,87.88
2023-01-13T07:28:27.953Z,88.49
2023-01-13T07:29:27.899Z,87.57
2023-01-13T07:30:27.913Z,87.98
2023-01-13T07:31:27.915Z,88.18
2023-01-13T07:32:27.886Z,88.08
2023-01-13T07:33:27.882Z,86.65
2023-01-13T07:34:27.897Z,86.44
2023-01-13T07:35:27.846Z,86.44
2023-01-13T07:36:27.824Z,86.24
2023-01-13T07:37:27.820Z,86.75
2023-01-13T07:38:27.852Z,86.75
2023-01-13T07:39:27.817Z,86.65
2023-01-13T07:40:27.868Z,86.85
2023-01-13T07:41:27.774Z,87.16
2023-01-13T07:42:27.764Z,86.96
2023-01-13T07:43:27.769Z,86.65
2023-01-13T07:44:27.766Z,86.85
2023-01-13T07:45:27.822Z,86.96
2023-01-13T07:46:27.722Z,87.16
2023-01-13T07:47:34.549Z,86.85
2023-01-13T07:48:27.726Z,86.85
2023-01-13T07:49:27.686Z,86.34
2023-01-13T07:50:29.295Z,86.04
2023-01-13T07:51:27.716Z,86.55
2023-01-13T07:52:27.656Z,86.34
2023-01-13T07:53:27.654Z,86.04
2023-01-13T07:54:39.606Z,86.14
2023-01-13T07:55:27.657Z,86.04
2023-01-13T07:56:27.642Z,85.11
2023-01-13T07:57:27.609Z,84.80
2023-01-13T07:58:27.655Z,84.80
2023-01-13T07:59:27.604Z,84.91
2023-01-13T08:00:27.593Z,84.39
2023-01-13T08:01:27.698Z,84.70
2023-01-13T08:02:27.778Z,84.50
2023-01-13T08:03:27.560Z,84.39
2023-01-13T08:04:27.533Z,84.50
2023-01-13T08:05:27.563Z,84.39
2023-01-13T08:06:27.516Z,84.29
2023-01-13T08:07:27.522Z,84.29
2023-01-13T08:08:27.524Z,83.82
2023-01-13T08:09:27.501Z,83.82
2023-01-13T08:10:27.481Z,83.92
2023-01-13T08:11:27.469Z,83.92
2023-01-13T08:12:27.462Z,84.03
2023-01-13T08:13:27.450Z,84.03
2023-01-13T08:14:27.429Z,84.03
2023-01-13T08:15:27.434Z,83.51
2023-01-13T08:16:27.441Z,83.92
2023-01-13T08:17:27.415Z,83.92
2023-01-13T08:18:27.380Z,84.12
2023-01-13T08:19:27.405Z,84.03
2023-01-13T08:20:27.383Z,83.82
2023-01-13T08:21:27.362Z,83.82
2023-01-13T08:22:27.366Z,83.92
2023-01-13T08:23:27.359Z,83.92
2023-01-13T08:24:27.327Z,84.12
2023-01-13T08:25:27.502Z,84.12
2023-01-13T08:26:27.323Z,84.33
2023-01-13T08:27:27.303Z,84.53
2023-01-13T08:28:27.306Z,84.53
2023-01-13T08:29:27.305Z,84.74
2023-01-13T08:30:27.338Z,84.95
2023-01-13T08:31:27.266Z,85.05
2023-01-13T08:32:27.261Z,85.36
2023-01-13T08:33:27.462Z,85.39
2023-01-13T08:34:27.238Z,85.56
2023-01-13T08:35:27.217Z,85.91
2023-01-13T08:36:27.224Z,85.80
2023-01-13T08:37:27.216Z,86.22
2023-01-13T08:38:27.175Z,86.32
2023-01-13T08:39:27.205Z,86.11
2023-01-13T08:40:27.174Z,86.48
2023-01-13T08:41:27.163Z,86.52
2023-01-13T08:42:27.169Z,86.58
2023-01-13T08:43:27.166Z,86.69
2023-01-13T08:44:27.156Z,86.63
2023-01-13T08:45:27.129Z,86.63
2023-01-13T08:46:27.149Z,87.04
2023-01-13T08:47:27.086Z,87.04
2023-01-13T08:48:28.554Z,87.20
2023-01-13T08:49:27.077Z,87.24
2023-01-13T08:50:27.139Z,87.14
2023-01-13T08:51:27.060Z,87.45
2023-01-13T08:52:27.057Z,87.10
2023-01-13T08:53:27.051Z,87.24
2023-01-13T08:54:27.024Z,87.41
2023-01-13T08:55:27.020Z,87.20
2023-01-13T08:56:27.060Z,87.30
2023-01-13T08:57:27.099Z,87.34
2023-01-13T08:58:27.024Z,87.76
2023-01-13T08:59:27.019Z,87.76
2023-01-13T09:00:26.962Z,87.96
2023-01-13T09:01:27.201Z,88.17
2023-01-13T09:02:26.981Z,87.85
2023-01-13T09:03:26.961Z,88.37
2023-01-13T09:04:26.943Z,88.47
2023-01-13T09:05:26.941Z,88.47
2023-01-13T09:06:26.892Z,88.57
2023-01-13T09:07:26.894Z,88.68
2023-01-13T09:08:26.871Z,88.57
2023-01-13T09:09:26.906Z,88.47
2023-01-13T09:10:26.895Z,88.68
2023-01-13T09:11:26.879Z,88.78
2023-01-13T09:12:26.880Z,88.88
2023-01-13T09:13:26.836Z,88.47
2023-01-13T09:14:26.817Z,88.68
2023-01-13T09:15:26.865Z,88.27
2023-01-13T09:16:26.812Z,88.37
2023-01-13T09:17:26.801Z,88.31
2023-01-13T09:18:26.778Z,88.06
2023-01-13T09:19:26.776Z,88.10
2023-01-13T09:20:26.775Z,88.00
2023-01-13T09:21:26.749Z,88.06
2023-01-13T09:22:26.745Z,88.17
2023-01-13T09:23:26.744Z,87.96
2023-01-13T09:24:26.722Z,88.21
2023-01-13T09:25:26.709Z,87.90
2023-01-13T09:26:26.687Z,88.31
2023-01-13T09:27:27.094Z,88.06
2023-01-13T09:28:26.664Z,87.96
2023-01-13T09:29:26.697Z,87.85
2023-01-13T09:30:26.640Z,87.96
2023-01-13T09:31:26.721Z,87.76
2023-01-13T09:32:26.654Z,87.65
2023-01-13T09:33:26.666Z,87.45
2023-01-13T09:34:26.618Z,87.34
2023-01-13T09:35:26.593Z,87.34
2023-01-13T09:36:26.585Z,87.45
2023-01-13T09:37:26.576Z,87.24
2023-01-13T09:38:26.588Z,87.34
2023-01-13T09:39:26.571Z,87.34
2023-01-13T09:40:26.540Z,87.34
2023-01-13T09:41:26.582Z,86.99
2023-01-13T09:42:26.516Z,86.79
2023-01-13T09:43:26.543Z,86.90
2023-01-13T09:44:26.517Z,86.90
2023-01-13T09:45:26.504Z,86.99
2023-01-13T09:46:26.541Z,87.10
2023-01-13T09:47:26.499Z,86.99
2023-01-13T09:48:26.515Z,87.10
2023-01-13T09:49:26.466Z,87.24
2023-01-13T09:50:26.456Z,87.41
2023-01-13T09:51:26.462Z,87.34
2023-01-13T09:52:27.172Z,87.34
2023-01-13T09:53:26.414Z,87.65
2023-01-13T09:54:26.415Z,87.65
2023-01-13T09:55:26.401Z,87.96
2023-01-13T09:56:26.366Z,87.76
2023-01-13T09:57:26.429Z,87.96
2023-01-13T09:58:26.363Z,88.21
2023-01-13T09:59:26.355Z,88.31
2023-01-13T10:00:26.332Z,88.31
2023-01-13T10:01:26.383Z,88.51
2023-01-13T10:02:26.364Z,88.21
2023-01-13T10:03:26.333Z,88.31
2023-01-13T10:04:26.324Z,88.41
2023-01-13T10:05:26.294Z,88.31
2023-01-13T10:06:26.275Z,88.31
2023-01-13T10:07:27.137Z,88.41
2023-01-13T10:08:26.289Z,88.41
2023-01-13T10:09:26.271Z,88.62
2023-01-13T10:10:26.275Z,88.10
2023-01-13T10:11:26.221Z,88.21
2023-01-13T10:12:26.224Z,88.31
2023-01-13T10:13:26.291Z,88.31
2023-01-13T10:14:26.242Z,88.21
2023-01-13T10:15:26.182Z,88.00
2023-01-13T10:16:26.241Z,87.90
2023-01-13T10:17:26.162Z,88.10
2023-01-13T10:18:26.170Z,87.94
2023-01-13T10:19:26.158Z,87.84
2023-01-13T10:20:26.131Z,87.90
2023-01-13T10:21:26.112Z,87.94
2023-01-13T10:22:26.126Z,88.41
2023-01-13T10:23:26.107Z,88.00
2023-01-13T10:24:26.108Z,87.38
2023-01-13T10:25:26.076Z,87.24
2023-01-13T10:26:26.119Z,86.58
2023-01-13T10:27:26.050Z,85.87
2023-01-13T10:28:26.071Z,85.15
2023-01-13T10:29:26.047Z,84.99
2023-01-13T10:30:26.038Z,85.39
2023-01-13T10:31:26.146Z,85.91
2023-01-13T10:32:26.020Z,85.60
2023-01-13T10:33:27.911Z,85.50
2023-01-13T10:34:25.983Z,84.52
2023-01-13T10:35:25.981Z,85.13
2023-01-13T10:36:25.961Z,85.23
2023-01-13T10:37:26.050Z,85.13
2023-01-13T10:38:25.967Z,85.13
2023-01-13T10:39:26.004Z,84.92
2023-01-13T10:40:25.925Z,84.92
2023-01-13T10:41:26.008Z,84.61
2023-01-13T10:42:25.924Z,84.31
2023-01-13T10:43:25.919Z,84.31
2023-01-13T10:44:25.878Z,84.41
2023-01-13T10:45:25.911Z,84.52
2023-01-13T10:46:26.085Z,84.41
2023-01-13T10:47:25.841Z,84.10
2023-01-13T10:48:25.867Z,83.90
2023-01-13T10:49:25.832Z,84.10
2023-01-13T10:50:25.831Z,83.80
2023-01-13T10:51:25.845Z,83.90
2023-01-13T10:52:25.904Z,83.80
2023-01-13T10:53:25.797Z,83.07
2023-01-13T10:54:25.785Z,83.18
2023-01-13T10:55:25.773Z,83.28
2023-01-13T10:56:25.770Z,82.87
2023-01-13T10:57:25.737Z,83.39
2023-01-13T10:58:25.750Z,83.28
2023-01-13T10:59:25.726Z,83.39
2023-01-13T11:00:25.719Z,83.18
2023-01-13T11:01:25.950Z,83.28
2023-01-13T11:02:26.963Z,83.07
2023-01-13T11:03:25.998Z,82.93
2023-01-13T11:04:25.714Z,82.93
2023-01-13T11:05:25.663Z,82.73
2023-01-13T11:06:25.681Z,82.01
2023-01-13T11:07:28.223Z,82.12
2023-01-13T11:08:25.685Z,82.22
2023-01-13T11:09:25.629Z,81.71
2023-01-13T11:10:25.614Z,81.60
2023-01-13T11:11:25.607Z,81.71
2023-01-13T11:12:25.618Z,81.98
2023-01-13T11:13:25.592Z,81.67
2023-01-13T11:14:25.582Z,81.20
2023-01-13T11:15:25.548Z,80.99
2023-01-13T11:16:25.654Z,80.78
2023-01-13T11:17:25.533Z,80.99
2023-01-13T11:18:25.556Z,80.68
2023-01-13T11:19:25.527Z,80.78
2023-01-13T11:20:25.508Z,80.74
2023-01-13T11:21:25.498Z,80.64
2023-01-13T11:22:25.485Z,80.03
2023-01-13T11:23:25.509Z,80.13
2023-01-13T11:24:25.484Z,79.72
2023-01-13T11:25:25.459Z,79.52
2023-01-13T11:26:25.450Z,79.72
2023-01-13T11:27:25.430Z,79.31
2023-01-13T11:28:25.465Z,79.52
2023-01-13T11:29:25.451Z,79.62
2023-01-13T11:30:25.417Z,80.54
2023-01-13T11:31:30.324Z,82.04
2023-01-13T11:32:25.415Z,81.94
2023-01-13T11:33:25.398Z,79.34
2023-01-13T11:34:25.371Z,77.94
2023-01-13T11:35:25.340Z,80.05
2023-01-13T11:36:25.369Z,78.31
2023-01-13T11:37:25.345Z,76.78
2023-01-13T11:38:25.334Z,77.46
2023-01-13T11:39:25.308Z,76.17
2023-01-13T11:40:25.295Z,76.68
2023-01-13T11:41:25.283Z,78.21
2023-01-13T11:42:25.281Z,77.29
2023-01-13T11:43:25.286Z,76.98
2023-01-13T11:44:25.297Z,76.75
2023-01-13T11:45:25.253Z,75.93
2023-01-13T11:46:25.284Z,75.35
2023-01-13T11:47:25.265Z,75.86
2023-01-13T11:48:25.273Z,76.31
2023-01-13T11:49:25.252Z,76.61
2023-01-13T11:50:25.285Z,76.72
2023-01-13T11:51:25.179Z,77.53
2023-01-13T11:52:25.169Z,77.12
2023-01-13T11:53:25.173Z,77.02
2023-01-13T11:54:25.203Z,76.72
2023-01-13T11:55:25.140Z,76.31
2023-01-13T11:56:25.159Z,76.40
2023-01-13T11:57:25.123Z,76.61
2023-01-13T11:58:25.139Z,76.61
2023-01-13T11:59:25.143Z,76.31
2023-01-13T12:00:25.093Z,76.31
2023-01-13T12:01:25.155Z,75.79
2023-01-13T12:02:25.108Z,75.18
2023-01-13T12:03:25.199Z,75.28
2023-01-13T12:04:25.116Z,75.18
2023-01-13T12:05:25.100Z,75.35
2023-01-13T12:06:25.026Z,74.53
2023-01-13T12:07:25.068Z,74.11
2023-01-13T12:08:25.024Z,74.08
2023-01-13T12:09:25.021Z,73.71
2023-01-13T12:10:25.017Z,73.61
2023-01-13T12:11:24.982Z,73.71
2023-01-13T12:12:24.964Z,73.81
2023-01-13T12:13:24.986Z,74.43
2023-01-13T12:14:24.992Z,74.53
2023-01-13T12:15:24.940Z,74.73
2023-01-13T12:16:24.968Z,73.81
2023-01-13T12:17:24.913Z,73.78
2023-01-13T12:18:24.922Z,73.36
2023-01-13T12:19:24.893Z,72.99
2023-01-13T12:20:24.902Z,72.89
2023-01-13T12:21:24.884Z,73.20
2023-01-13T12:22:24.889Z,73.30
2023-01-13T12:23:24.844Z,73.10
2023-01-13T12:24:24.871Z,73.30
2023-01-13T12:25:24.853Z,73.40
2023-01-13T12:26:24.832Z,72.99
2023-01-13T12:27:24.859Z,73.61
2023-01-13T12:28:24.908Z,73.40
2023-01-13T12:29:24.825Z,73.40
2023-01-13T12:30:24.784Z,73.40
2023-01-13T12:31:24.861Z,73.50
2023-01-13T12:32:24.754Z,73.10
2023-01-13T12:33:24.754Z,73.30
2023-01-13T12:34:24.778Z,73.40
2023-01-13T12:35:24.739Z,73.20
2023-01-13T12:36:24.720Z,73.20
2023-01-13T12:37:24.712Z,73.61
2023-01-13T12:38:24.708Z,72.89
2023-01-13T12:39:24.709Z,72.69
2023-01-13T12:40:24.697Z,72.38
2023-01-13T12:41:24.681Z,71.97
2023-01-13T12:42:24.649Z,72.38
2023-01-13T12:43:24.647Z,72.28
2023-01-13T12:44:24.647Z,71.36
2023-01-13T12:45:24.651Z,70.74
2023-01-13T12:46:24.637Z,70.40
2023-01-13T12:47:24.616Z,70.71
2023-01-13T12:48:24.615Z,70.74
2023-01-13T12:49:24.608Z,70.61
2023-01-13T12:50:24.572Z,70.91
2023-01-13T12:51:24.618Z,71.01
2023-01-13T12:52:24.570Z,70.43